sensor_id;sensor_type;location;lat;lon;timestamp;P1;durP1;ratioP1;P2;durP2;ratioP2
11986;SDS011;6053;51.382;6.768;2023-09-19T00:02:10;2.00;;;1.05;;
11986;SDS011;6053;51.382;6.768;2023-09-19T00:04:38;3.40;;;1.20;;
11986;SDS011;6053;51.382;6.768;2023-09-19T00:07:09;3.30;;;1.10;;
11986;SDS011;6053;51.382;6.768;2023-09-19T00:09:43;1.73;;;0.80;;
11986;SDS011;6053;51.382;6.768;2023-09-19T00:12:14;2.20;;;0.82;;
11986;SDS011;6053;51.382;6.768;2023-09-19T00:14:42;2.97;;;1.00;;
11986;SDS011;6053;51.382;6.768;2023-09-19T00:17:10;2.25;;;0.80;;
11986;SDS011;6053;51.382;6.768;2023-09-19T00:19:39;3.07;;;1.40;;
11986;SDS011;6053;51.382;6.768;2023-09-19T00:22:12;2.47;;;1.00;;
11986;SDS011;6053;51.382;6.768;2023-09-19T00:24:42;3.90;;;1.02;;
11986;SDS011;6053;51.382;6.768;2023-09-19T00:27:33;2.03;;;0.85;;
11986;SDS011;6053;51.382;6.768;2023-09-19T00:30:11;2.08;;;0.85;;
11986;SDS011;6053;51.382;6.768;2023-09-19T00:32:46;2.67;;;0.90;;
11986;SDS011;6053;51.382;6.768;2023-09-19T00:35:24;3.57;;;1.10;;
11986;SDS011;6053;51.382;6.768;2023-09-19T00:37:57;2.80;;;0.90;;
11986;SDS011;6053;51.382;6.768;2023-09-19T00:40:26;1.83;;;0.90;;
11986;SDS011;6053;51.382;6.768;2023-09-19T00:43:00;5.57;;;1.70;;
11986;SDS011;6053;51.382;6.768;2023-09-19T00:45:29;2.92;;;1.10;;
11986;SDS011;6053;51.382;6.768;2023-09-19T00:48:09;2.92;;;1.15;;
11986;SDS011;6053;51.382;6.768;2023-09-19T00:50:41;2.58;;;0.93;;
11986;SDS011;6053;51.382;6.768;2023-09-19T00:53:12;2.63;;;1.00;;
11986;SDS011;6053;51.382;6.768;2023-09-19T00:55:56;1.67;;;0.77;;
11986;SDS011;6053;51.382;6.768;2023-09-19T00:58:33;2.50;;;1.00;;
11986;SDS011;6053;51.382;6.768;2023-09-19T01:01:02;2.10;;;1.00;;
11986;SDS011;6053;51.382;6.768;2023-09-19T01:03:33;2.80;;;1.00;;
11986;SDS011;6053;51.382;6.768;2023-09-19T01:06:02;3.70;;;1.20;;
11986;SDS011;6053;51.382;6.768;2023-09-19T01:08:30;2.50;;;1.20;;
11986;SDS011;6053;51.382;6.768;2023-09-19T01:10:59;5.25;;;1.35;;
11986;SDS011;6053;51.382;6.768;2023-09-19T01:13:40;2.30;;;1.08;;
11986;SDS011;6053;51.382;6.768;2023-09-19T01:16:28;2.80;;;1.05;;
11986;SDS011;6053;51.382;6.768;2023-09-19T01:19:19;3.28;;;1.17;;
11986;SDS011;6053;51.382;6.768;2023-09-19T01:22:26;2.70;;;1.05;;
11986;SDS011;6053;51.382;6.768;2023-09-19T01:25:18;4.15;;;1.23;;
11986;SDS011;6053;51.382;6.768;2023-09-19T01:28:25;5.37;;;1.40;;
11986;SDS011;6053;51.382;6.768;2023-09-19T01:31:06;3.90;;;1.30;;
11986;SDS011;6053;51.382;6.768;2023-09-19T01:33:54;4.30;;;1.67;;
11986;SDS011;6053;51.382;6.768;2023-09-19T01:36:26;2.40;;;1.00;;
11986;SDS011;6053;51.382;6.768;2023-09-19T01:39:05;3.22;;;1.33;;
11986;SDS011;6053;51.382;6.768;2023-09-19T01:41:49;3.25;;;1.23;;
11986;SDS011;6053;51.382;6.768;2023-09-19T01:44:40;1.27;;;0.85;;
11986;SDS011;6053;51.382;6.768;2023-09-19T01:47:28;2.42;;;1.20;;
11986;SDS011;6053;51.382;6.768;2023-09-19T01:50:06;4.30;;;1.50;;
11986;SDS011;6053;51.382;6.768;2023-09-19T01:52:56;3.92;;;1.25;;
11986;SDS011;6053;51.382;6.768;2023-09-19T01:55:35;4.55;;;1.10;;
11986;SDS011;6053;51.382;6.768;2023-09-19T01:58:20;4.05;;;1.13;;
11986;SDS011;6053;51.382;6.768;2023-09-19T02:01:02;2.07;;;1.10;;
11986;SDS011;6053;51.382;6.768;2023-09-19T02:06:25;2.40;;;1.02;;
11986;SDS011;6053;51.382;6.768;2023-09-19T02:08:54;3.00;;;1.20;;
11986;SDS011;6053;51.382;6.768;2023-09-19T02:11:23;2.75;;;1.20;;
11986;SDS011;6053;51.382;6.768;2023-09-19T02:13:52;3.57;;;1.30;;
11986;SDS011;6053;51.382;6.768;2023-09-19T02:16:26;5.82;;;1.48;;
11986;SDS011;6053;51.382;6.768;2023-09-19T02:18:56;2.95;;;1.30;;
11986;SDS011;6053;51.382;6.768;2023-09-19T02:21:31;4.13;;;1.05;;
11986;SDS011;6053;51.382;6.768;2023-09-19T02:23:59;3.85;;;1.30;;
11986;SDS011;6053;51.382;6.768;2023-09-19T02:26:45;4.75;;;1.50;;
11986;SDS011;6053;51.382;6.768;2023-09-19T02:29:14;4.13;;;1.00;;
11986;SDS011;6053;51.382;6.768;2023-09-19T02:31:51;4.28;;;1.13;;
11986;SDS011;6053;51.382;6.768;2023-09-19T02:34:24;3.00;;;0.90;;
11986;SDS011;6053;51.382;6.768;2023-09-19T02:36:53;5.85;;;1.52;;
11986;SDS011;6053;51.382;6.768;2023-09-19T02:39:28;4.43;;;1.35;;
11986;SDS011;6053;51.382;6.768;2023-09-19T02:41:56;3.90;;;1.10;;
11986;SDS011;6053;51.382;6.768;2023-09-19T02:44:31;2.90;;;1.00;;
11986;SDS011;6053;51.382;6.768;2023-09-19T02:47:04;1.75;;;0.95;;
11986;SDS011;6053;51.382;6.768;2023-09-19T02:49:37;3.03;;;1.30;;
11986;SDS011;6053;51.382;6.768;2023-09-19T02:52:12;3.40;;;1.27;;
11986;SDS011;6053;51.382;6.768;2023-09-19T02:54:42;4.47;;;1.42;;
11986;SDS011;6053;51.382;6.768;2023-09-19T02:57:14;2.95;;;1.00;;
11986;SDS011;6053;51.382;6.768;2023-09-19T02:59:44;5.03;;;1.27;;
11986;SDS011;6053;51.382;6.768;2023-09-19T03:02:16;3.10;;;1.10;;
11986;SDS011;6053;51.382;6.768;2023-09-19T03:04:49;4.47;;;1.33;;
11986;SDS011;6053;51.382;6.768;2023-09-19T03:07:18;4.28;;;1.20;;
11986;SDS011;6053;51.382;6.768;2023-09-19T03:09:54;5.00;;;1.45;;
11986;SDS011;6053;51.382;6.768;2023-09-19T03:12:26;2.13;;;1.00;;
11986;SDS011;6053;51.382;6.768;2023-09-19T03:14:57;2.53;;;1.10;;
11986;SDS011;6053;51.382;6.768;2023-09-19T03:17:26;4.00;;;1.00;;
11986;SDS011;6053;51.382;6.768;2023-09-19T03:19:59;2.85;;;0.95;;
11986;SDS011;6053;51.382;6.768;2023-09-19T03:22:28;2.63;;;1.15;;
11986;SDS011;6053;51.382;6.768;2023-09-19T03:24:57;3.47;;;1.30;;
11986;SDS011;6053;51.382;6.768;2023-09-19T03:27:27;3.33;;;1.20;;
11986;SDS011;6053;51.382;6.768;2023-09-19T03:29:58;3.30;;;1.00;;
11986;SDS011;6053;51.382;6.768;2023-09-19T03:32:27;4.07;;;1.40;;
11986;SDS011;6053;51.382;6.768;2023-09-19T03:34:56;1.47;;;0.73;;
11986;SDS011;6053;51.382;6.768;2023-09-19T03:37:28;3.60;;;1.20;;
11986;SDS011;6053;51.382;6.768;2023-09-19T03:39:57;2.33;;;1.00;;
11986;SDS011;6053;51.382;6.768;2023-09-19T03:42:25;2.65;;;1.17;;
11986;SDS011;6053;51.382;6.768;2023-09-19T03:44:54;4.30;;;1.33;;
11986;SDS011;6053;51.382;6.768;2023-09-19T03:47:23;5.00;;;1.30;;
11986;SDS011;6053;51.382;6.768;2023-09-19T03:49:51;2.92;;;1.00;;
11986;SDS011;6053;51.382;6.768;2023-09-19T03:52:22;2.60;;;1.00;;
11986;SDS011;6053;51.382;6.768;2023-09-19T03:54:59;4.78;;;1.25;;
11986;SDS011;6053;51.382;6.768;2023-09-19T03:57:35;1.58;;;0.80;;
11986;SDS011;6053;51.382;6.768;2023-09-19T04:00:04;4.30;;;0.95;;
11986;SDS011;6053;51.382;6.768;2023-09-19T04:02:48;1.73;;;1.00;;
11986;SDS011;6053;51.382;6.768;2023-09-19T04:05:19;3.20;;;1.27;;
11986;SDS011;6053;51.382;6.768;2023-09-19T04:07:56;2.40;;;1.05;;
11986;SDS011;6053;51.382;6.768;2023-09-19T04:10:26;3.73;;;1.13;;
11986;SDS011;6053;51.382;6.768;2023-09-19T04:12:57;3.65;;;1.05;;
11986;SDS011;6053;51.382;6.768;2023-09-19T04:15:26;3.60;;;1.10;;
11986;SDS011;6053;51.382;6.768;2023-09-19T04:17:54;1.85;;;0.93;;
11986;SDS011;6053;51.382;6.768;2023-09-19T04:20:26;2.97;;;1.23;;
11986;SDS011;6053;51.382;6.768;2023-09-19T04:23:00;5.13;;;1.10;;
11986;SDS011;6053;51.382;6.768;2023-09-19T04:25:35;6.13;;;1.47;;
11986;SDS011;6053;51.382;6.768;2023-09-19T04:28:04;2.33;;;1.00;;
11986;SDS011;6053;51.382;6.768;2023-09-19T04:30:41;3.85;;;1.15;;
11986;SDS011;6053;51.382;6.768;2023-09-19T04:33:13;3.35;;;0.93;;
11986;SDS011;6053;51.382;6.768;2023-09-19T04:35:41;1.83;;;0.80;;
11986;SDS011;6053;51.382;6.768;2023-09-19T04:38:10;3.78;;;1.25;;
11986;SDS011;6053;51.382;6.768;2023-09-19T04:40:43;4.15;;;1.15;;
11986;SDS011;6053;51.382;6.768;2023-09-19T04:43:23;2.37;;;1.00;;
11986;SDS011;6053;51.382;6.768;2023-09-19T04:45:52;3.25;;;1.40;;
11986;SDS011;6053;51.382;6.768;2023-09-19T04:48:26;2.97;;;1.05;;
11986;SDS011;6053;51.382;6.768;2023-09-19T04:50:56;3.13;;;1.30;;
11986;SDS011;6053;51.382;6.768;2023-09-19T04:53:26;2.95;;;1.23;;
11986;SDS011;6053;51.382;6.768;2023-09-19T04:55:56;1.83;;;1.20;;
11986;SDS011;6053;51.382;6.768;2023-09-19T04:58:27;3.85;;;0.93;;
11986;SDS011;6053;51.382;6.768;2023-09-19T05:00:56;2.70;;;1.08;;
11986;SDS011;6053;51.382;6.768;2023-09-19T05:03:25;4.93;;;1.40;;
11986;SDS011;6053;51.382;6.768;2023-09-19T05:05:54;4.55;;;1.50;;
11986;SDS011;6053;51.382;6.768;2023-09-19T05:08:23;4.93;;;1.60;;
11986;SDS011;6053;51.382;6.768;2023-09-19T05:10:51;3.80;;;1.38;;
11986;SDS011;6053;51.382;6.768;2023-09-19T05:13:25;5.22;;;1.50;;
11986;SDS011;6053;51.382;6.768;2023-09-19T05:15:53;3.83;;;1.33;;
11986;SDS011;6053;51.382;6.768;2023-09-19T05:18:27;3.42;;;1.30;;
11986;SDS011;6053;51.382;6.768;2023-09-19T05:21:08;4.70;;;1.20;;
11986;SDS011;6053;51.382;6.768;2023-09-19T05:23:38;4.55;;;1.50;;
11986;SDS011;6053;51.382;6.768;2023-09-19T05:26:11;4.00;;;1.30;;
11986;SDS011;6053;51.382;6.768;2023-09-19T05:28:48;2.22;;;1.00;;
11986;SDS011;6053;51.382;6.768;2023-09-19T05:31:19;4.00;;;1.10;;
11986;SDS011;6053;51.382;6.768;2023-09-19T05:33:49;4.00;;;1.40;;
11986;SDS011;6053;51.382;6.768;2023-09-19T05:36:27;2.72;;;1.13;;
11986;SDS011;6053;51.382;6.768;2023-09-19T05:39:04;2.70;;;1.17;;
11986;SDS011;6053;51.382;6.768;2023-09-19T05:41:37;3.42;;;1.02;;
11986;SDS011;6053;51.382;6.768;2023-09-19T05:44:09;3.15;;;1.15;;
11986;SDS011;6053;51.382;6.768;2023-09-19T05:46:56;3.47;;;1.00;;
11986;SDS011;6053;51.382;6.768;2023-09-19T05:49:25;4.35;;;1.40;;
11986;SDS011;6053;51.382;6.768;2023-09-19T05:51:53;7.95;;;1.77;;
11986;SDS011;6053;51.382;6.768;2023-09-19T05:54:23;2.20;;;1.00;;
11986;SDS011;6053;51.382;6.768;2023-09-19T05:56:55;2.03;;;1.05;;
11986;SDS011;6053;51.382;6.768;2023-09-19T05:59:24;3.80;;;1.20;;
11986;SDS011;6053;51.382;6.768;2023-09-19T06:01:52;3.43;;;1.27;;
11986;SDS011;6053;51.382;6.768;2023-09-19T06:04:21;3.25;;;1.30;;
11986;SDS011;6053;51.382;6.768;2023-09-19T06:06:51;2.03;;;1.00;;
11986;SDS011;6053;51.382;6.768;2023-09-19T06:09:20;5.75;;;1.50;;
11986;SDS011;6053;51.382;6.768;2023-09-19T06:11:52;4.55;;;1.50;;
11986;SDS011;6053;51.382;6.768;2023-09-19T06:14:32;3.90;;;1.50;;
11986;SDS011;6053;51.382;6.768;2023-09-19T06:17:01;2.45;;;1.30;;
11986;SDS011;6053;51.382;6.768;2023-09-19T06:19:30;2.90;;;1.30;;
11986;SDS011;6053;51.382;6.768;2023-09-19T06:21:59;3.97;;;1.10;;
11986;SDS011;6053;51.382;6.768;2023-09-19T06:24:30;4.10;;;1.25;;
11986;SDS011;6053;51.382;6.768;2023-09-19T06:27:00;4.95;;;1.55;;
11986;SDS011;6053;51.382;6.768;2023-09-19T06:29:33;3.67;;;1.20;;
11986;SDS011;6053;51.382;6.768;2023-09-19T06:32:06;3.83;;;1.50;;
11986;SDS011;6053;51.382;6.768;2023-09-19T06:34:38;2.33;;;1.20;;
11986;SDS011;6053;51.382;6.768;2023-09-19T06:37:13;3.60;;;1.00;;
11986;SDS011;6053;51.382;6.768;2023-09-19T06:39:41;3.08;;;1.20;;
11986;SDS011;6053;51.382;6.768;2023-09-19T06:42:17;1.27;;;1.00;;
11986;SDS011;6053;51.382;6.768;2023-09-19T06:44:50;2.28;;;0.95;;
11986;SDS011;6053;51.382;6.768;2023-09-19T06:47:19;3.03;;;1.00;;
11986;SDS011;6053;51.382;6.768;2023-09-19T06:50:04;2.83;;;1.00;;
11986;SDS011;6053;51.382;6.768;2023-09-19T06:52:41;2.35;;;1.10;;
11986;SDS011;6053;51.382;6.768;2023-09-19T06:55:17;4.95;;;1.60;;
11986;SDS011;6053;51.382;6.768;2023-09-19T06:57:50;2.92;;;1.30;;
11986;SDS011;6053;51.382;6.768;2023-09-19T07:00:27;5.18;;;1.48;;
11986;SDS011;6053;51.382;6.768;2023-09-19T07:02:58;3.80;;;1.65;;
11986;SDS011;6053;51.382;6.768;2023-09-19T07:05:34;8.50;;;1.77;;
11986;SDS011;6053;51.382;6.768;2023-09-19T07:08:06;6.00;;;1.35;;
11986;SDS011;6053;51.382;6.768;2023-09-19T07:10:36;5.47;;;1.08;;
11986;SDS011;6053;51.382;6.768;2023-09-19T07:13:14;2.58;;;1.10;;
11986;SDS011;6053;51.382;6.768;2023-09-19T07:15:44;4.70;;;1.40;;
11986;SDS011;6053;51.382;6.768;2023-09-19T07:18:14;1.70;;;1.00;;
11986;SDS011;6053;51.382;6.768;2023-09-19T07:20:47;4.47;;;1.30;;
11986;SDS011;6053;51.382;6.768;2023-09-19T07:23:18;3.53;;;1.30;;
11986;SDS011;6053;51.382;6.768;2023-09-19T07:25:49;2.80;;;0.98;;
11986;SDS011;6053;51.382;6.768;2023-09-19T07:28:25;2.90;;;1.00;;
11986;SDS011;6053;51.382;6.768;2023-09-19T07:30:54;5.07;;;1.50;;
11986;SDS011;6053;51.382;6.768;2023-09-19T07:33:26;2.10;;;1.10;;
11986;SDS011;6053;51.382;6.768;2023-09-19T07:35:58;2.15;;;1.00;;
11986;SDS011;6053;51.382;6.768;2023-09-19T07:38:27;3.92;;;1.20;;
11986;SDS011;6053;51.382;6.768;2023-09-19T07:41:07;3.53;;;1.20;;
11986;SDS011;6053;51.382;6.768;2023-09-19T07:43:40;4.33;;;1.30;;
11986;SDS011;6053;51.382;6.768;2023-09-19T07:46:10;2.90;;;1.08;;
11986;SDS011;6053;51.382;6.768;2023-09-19T07:48:48;2.88;;;1.38;;
11986;SDS011;6053;51.382;6.768;2023-09-19T07:51:16;5.68;;;1.60;;
11986;SDS011;6053;51.382;6.768;2023-09-19T07:53:48;5.63;;;1.45;;
11986;SDS011;6053;51.382;6.768;2023-09-19T07:56:16;3.30;;;1.13;;
11986;SDS011;6053;51.382;6.768;2023-09-19T07:58:50;4.55;;;1.80;;
11986;SDS011;6053;51.382;6.768;2023-09-19T08:01:22;3.95;;;1.48;;
11986;SDS011;6053;51.382;6.768;2023-09-19T08:03:51;3.97;;;1.08;;
11986;SDS011;6053;51.382;6.768;2023-09-19T08:06:19;4.97;;;1.40;;
11986;SDS011;6053;51.382;6.768;2023-09-19T08:08:55;6.47;;;1.75;;
11986;SDS011;6053;51.382;6.768;2023-09-19T08:11:27;6.15;;;1.40;;
11986;SDS011;6053;51.382;6.768;2023-09-19T08:14:01;4.57;;;1.40;;
11986;SDS011;6053;51.382;6.768;2023-09-19T08:16:32;4.10;;;1.40;;
11986;SDS011;6053;51.382;6.768;2023-09-19T08:19:01;6.13;;;1.58;;
11986;SDS011;6053;51.382;6.768;2023-09-19T08:21:35;5.10;;;1.45;;
11986;SDS011;6053;51.382;6.768;2023-09-19T08:24:04;5.95;;;1.50;;
11986;SDS011;6053;51.382;6.768;2023-09-19T08:26:35;2.90;;;1.40;;
11986;SDS011;6053;51.382;6.768;2023-09-19T08:29:12;5.65;;;1.70;;
11986;SDS011;6053;51.382;6.768;2023-09-19T08:31:54;6.63;;;1.92;;
11986;SDS011;6053;51.382;6.768;2023-09-19T08:34:22;3.90;;;1.43;;
11986;SDS011;6053;51.382;6.768;2023-09-19T08:36:52;4.40;;;1.30;;
11986;SDS011;6053;51.382;6.768;2023-09-19T08:39:22;3.13;;;1.20;;
11986;SDS011;6053;51.382;6.768;2023-09-19T08:41:58;4.28;;;1.50;;
11986;SDS011;6053;51.382;6.768;2023-09-19T08:44:29;3.58;;;1.75;;
11986;SDS011;6053;51.382;6.768;2023-09-19T08:46:59;3.95;;;1.50;;
11986;SDS011;6053;51.382;6.768;2023-09-19T08:49:40;6.03;;;1.50;;
11986;SDS011;6053;51.382;6.768;2023-09-19T08:52:20;3.95;;;1.42;;
11986;SDS011;6053;51.382;6.768;2023-09-19T08:54:53;3.42;;;1.70;;
11986;SDS011;6053;51.382;6.768;2023-09-19T08:57:39;5.03;;;1.67;;
11986;SDS011;6053;51.382;6.768;2023-09-19T09:00:17;8.25;;;1.83;;
11986;SDS011;6053;51.382;6.768;2023-09-19T09:02:47;3.27;;;1.27;;
11986;SDS011;6053;51.382;6.768;2023-09-19T09:05:17;4.43;;;1.52;;
11986;SDS011;6053;51.382;6.768;2023-09-19T09:07:49;5.70;;;1.60;;
11986;SDS011;6053;51.382;6.768;2023-09-19T09:10:22;4.68;;;1.55;;
11986;SDS011;6053;51.382;6.768;2023-09-19T09:12:51;5.70;;;1.70;;
11986;SDS011;6053;51.382;6.768;2023-09-19T09:15:25;4.70;;;1.38;;
11986;SDS011;6053;51.382;6.768;2023-09-19T09:17:57;7.25;;;1.50;;
11986;SDS011;6053;51.382;6.768;2023-09-19T09:20:28;5.45;;;1.48;;
11986;SDS011;6053;51.382;6.768;2023-09-19T09:23:00;4.53;;;1.53;;
11986;SDS011;6053;51.382;6.768;2023-09-19T09:28:20;3.30;;;1.25;;
11986;SDS011;6053;51.382;6.768;2023-09-19T09:30:50;4.68;;;1.58;;
11986;SDS011;6053;51.382;6.768;2023-09-19T09:33:20;5.50;;;1.35;;
11986;SDS011;6053;51.382;6.768;2023-09-19T09:35:49;4.55;;;1.50;;
11986;SDS011;6053;51.382;6.768;2023-09-19T09:38:20;4.87;;;1.50;;
11986;SDS011;6053;51.382;6.768;2023-09-19T09:40:54;6.30;;;1.75;;
11986;SDS011;6053;51.382;6.768;2023-09-19T09:43:36;6.17;;;1.77;;
11986;SDS011;6053;51.382;6.768;2023-09-19T09:46:18;5.23;;;1.50;;
11986;SDS011;6053;51.382;6.768;2023-09-19T09:49:07;4.23;;;1.30;;
11986;SDS011;6053;51.382;6.768;2023-09-19T09:51:58;8.23;;;1.70;;
11986;SDS011;6053;51.382;6.768;2023-09-19T09:54:35;5.80;;;1.40;;
11986;SDS011;6053;51.382;6.768;2023-09-19T09:57:04;4.57;;;1.37;;
11986;SDS011;6053;51.382;6.768;2023-09-19T09:59:44;4.82;;;1.50;;
11986;SDS011;6053;51.382;6.768;2023-09-19T10:02:17;6.28;;;1.40;;
11986;SDS011;6053;51.382;6.768;2023-09-19T10:04:52;4.28;;;1.52;;
11986;SDS011;6053;51.382;6.768;2023-09-19T10:07:42;5.57;;;1.50;;
11986;SDS011;6053;51.382;6.768;2023-09-19T10:10:30;5.00;;;1.60;;
11986;SDS011;6053;51.382;6.768;2023-09-19T10:13:20;4.93;;;1.50;;
11986;SDS011;6053;51.382;6.768;2023-09-19T10:15:50;5.17;;;1.50;;
11986;SDS011;6053;51.382;6.768;2023-09-19T10:18:23;4.72;;;1.42;;
11986;SDS011;6053;51.382;6.768;2023-09-19T10:20:54;5.35;;;1.50;;
11986;SDS011;6053;51.382;6.768;2023-09-19T10:23:27;3.17;;;1.48;;
11986;SDS011;6053;51.382;6.768;2023-09-19T10:26:00;3.85;;;1.23;;
11986;SDS011;6053;51.382;6.768;2023-09-19T10:28:31;4.50;;;1.40;;
11986;SDS011;6053;51.382;6.768;2023-09-19T10:31:02;4.95;;;1.52;;
11986;SDS011;6053;51.382;6.768;2023-09-19T10:33:41;4.17;;;1.40;;
11986;SDS011;6053;51.382;6.768;2023-09-19T10:36:12;2.20;;;0.95;;
11986;SDS011;6053;51.382;6.768;2023-09-19T10:38:42;3.85;;;1.42;;
11986;SDS011;6053;51.382;6.768;2023-09-19T10:41:12;3.40;;;1.35;;
11986;SDS011;6053;51.382;6.768;2023-09-19T10:43:43;5.10;;;1.23;;
11986;SDS011;6053;51.382;6.768;2023-09-19T10:46:20;6.20;;;1.50;;
11986;SDS011;6053;51.382;6.768;2023-09-19T10:48:50;1.70;;;1.00;;
11986;SDS011;6053;51.382;6.768;2023-09-19T10:51:22;4.10;;;1.30;;
11986;SDS011;6053;51.382;6.768;2023-09-19T10:53:55;2.75;;;1.25;;
11986;SDS011;6053;51.382;6.768;2023-09-19T10:56:30;2.83;;;1.10;;
11986;SDS011;6053;51.382;6.768;2023-09-19T10:59:17;1.88;;;1.10;;
11986;SDS011;6053;51.382;6.768;2023-09-19T11:01:48;5.03;;;1.45;;
11986;SDS011;6053;51.382;6.768;2023-09-19T11:04:24;2.33;;;1.20;;
11986;SDS011;6053;51.382;6.768;2023-09-19T11:09:45;2.83;;;1.17;;
11986;SDS011;6053;51.382;6.768;2023-09-19T11:24:31;3.20;;;1.02;;
11986;SDS011;6053;51.382;6.768;2023-09-19T11:27:11;2.93;;;1.10;;
11986;SDS011;6053;51.382;6.768;2023-09-19T11:29:46;3.78;;;1.40;;
11986;SDS011;6053;51.382;6.768;2023-09-19T11:32:15;6.40;;;1.70;;
11986;SDS011;6053;51.382;6.768;2023-09-19T11:34:46;2.80;;;1.38;;
11986;SDS011;6053;51.382;6.768;2023-09-19T11:40:47;2.75;;;1.23;;
11986;SDS011;6053;51.382;6.768;2023-09-19T11:43:50;3.70;;;1.20;;
11986;SDS011;6053;51.382;6.768;2023-09-19T11:46:23;4.93;;;1.50;;
11986;SDS011;6053;51.382;6.768;2023-09-19T11:48:52;2.92;;;1.30;;
11986;SDS011;6053;51.382;6.768;2023-09-19T11:51:25;4.97;;;1.45;;
11986;SDS011;6053;51.382;6.768;2023-09-19T11:53:55;3.40;;;1.30;;
11986;SDS011;6053;51.382;6.768;2023-09-19T11:56:27;4.70;;;1.40;;
11986;SDS011;6053;51.382;6.768;2023-09-19T11:58:58;2.80;;;1.20;;
11986;SDS011;6053;51.382;6.768;2023-09-19T12:01:29;3.00;;;1.45;;
11986;SDS011;6053;51.382;6.768;2023-09-19T12:04:00;3.20;;;1.10;;
11986;SDS011;6053;51.382;6.768;2023-09-19T12:06:31;1.40;;;1.05;;
11986;SDS011;6053;51.382;6.768;2023-09-19T12:09:03;2.80;;;1.00;;
11986;SDS011;6053;51.382;6.768;2023-09-19T12:11:47;3.67;;;1.23;;
11986;SDS011;6053;51.382;6.768;2023-09-19T12:14:23;4.07;;;1.10;;
11986;SDS011;6053;51.382;6.768;2023-09-19T12:16:59;3.20;;;1.08;;
11986;SDS011;6053;51.382;6.768;2023-09-19T12:19:30;2.20;;;1.08;;
11986;SDS011;6053;51.382;6.768;2023-09-19T12:21:58;3.88;;;1.40;;
11986;SDS011;6053;51.382;6.768;2023-09-19T12:24:31;3.63;;;1.30;;
11986;SDS011;6053;51.382;6.768;2023-09-19T12:27:05;2.85;;;1.00;;
11986;SDS011;6053;51.382;6.768;2023-09-19T12:29:46;2.28;;;1.00;;
11986;SDS011;6053;51.382;6.768;2023-09-19T12:32:16;3.55;;;1.15;;
11986;SDS011;6053;51.382;6.768;2023-09-19T12:35:08;2.50;;;1.00;;
11986;SDS011;6053;51.382;6.768;2023-09-19T12:37:55;3.50;;;1.20;;
11986;SDS011;6053;51.382;6.768;2023-09-19T12:40:23;6.10;;;1.23;;
11986;SDS011;6053;51.382;6.768;2023-09-19T12:43:00;2.13;;;1.00;;
11986;SDS011;6053;51.382;6.768;2023-09-19T12:45:30;2.58;;;1.08;;
11986;SDS011;6053;51.382;6.768;2023-09-19T12:48:27;2.10;;;1.00;;
11986;SDS011;6053;51.382;6.768;2023-09-19T12:51:01;2.67;;;1.10;;
11986;SDS011;6053;51.382;6.768;2023-09-19T12:53:33;4.67;;;1.10;;
11986;SDS011;6053;51.382;6.768;2023-09-19T12:56:08;2.80;;;1.10;;
11986;SDS011;6053;51.382;6.768;2023-09-19T13:01:39;2.45;;;0.95;;
11986;SDS011;6053;51.382;6.768;2023-09-19T13:04:16;5.63;;;1.30;;
11986;SDS011;6053;51.382;6.768;2023-09-19T13:06:47;3.53;;;1.00;;
11986;SDS011;6053;51.382;6.768;2023-09-19T13:09:18;1.55;;;0.77;;
11986;SDS011;6053;51.382;6.768;2023-09-19T13:11:51;4.15;;;1.10;;
11986;SDS011;6053;51.382;6.768;2023-09-19T13:14:24;4.15;;;1.00;;
11986;SDS011;6053;51.382;6.768;2023-09-19T13:16:58;1.23;;;0.77;;
11986;SDS011;6053;51.382;6.768;2023-09-19T13:19:44;2.65;;;0.82;;
11986;SDS011;6053;51.382;6.768;2023-09-19T13:25:06;1.30;;;0.68;;
11986;SDS011;6053;51.382;6.768;2023-09-19T13:27:40;2.22;;;1.00;;
11986;SDS011;6053;51.382;6.768;2023-09-19T13:30:12;2.13;;;0.90;;
11986;SDS011;6053;51.382;6.768;2023-09-19T13:32:41;2.88;;;0.77;;
11986;SDS011;6053;51.382;6.768;2023-09-19T13:35:10;1.88;;;0.90;;
11986;SDS011;6053;51.382;6.768;2023-09-19T13:37:42;1.10;;;0.55;;
11986;SDS011;6053;51.382;6.768;2023-09-19T13:40:15;1.73;;;0.80;;
11986;SDS011;6053;51.382;6.768;2023-09-19T13:42:44;1.35;;;0.70;;
11986;SDS011;6053;51.382;6.768;2023-09-19T13:45:13;3.03;;;0.70;;
11986;SDS011;6053;51.382;6.768;2023-09-19T13:47:43;2.83;;;0.90;;
11986;SDS011;6053;51.382;6.768;2023-09-19T13:50:12;2.80;;;0.90;;
11986;SDS011;6053;51.382;6.768;2023-09-19T13:52:41;1.85;;;0.77;;
11986;SDS011;6053;51.382;6.768;2023-09-19T13:55:09;1.65;;;0.73;;
11986;SDS011;6053;51.382;6.768;2023-09-19T13:57:45;2.25;;;0.60;;
11986;SDS011;6053;51.382;6.768;2023-09-19T14:00:17;1.25;;;0.47;;
11986;SDS011;6053;51.382;6.768;2023-09-19T14:02:46;4.35;;;0.80;;
11986;SDS011;6053;51.382;6.768;2023-09-19T14:05:21;1.90;;;0.60;;
11986;SDS011;6053;51.382;6.768;2023-09-19T14:07:54;1.75;;;0.70;;
11986;SDS011;6053;51.382;6.768;2023-09-19T14:10:29;0.93;;;0.63;;
11986;SDS011;6053;51.382;6.768;2023-09-19T14:13:04;1.70;;;0.63;;
11986;SDS011;6053;51.382;6.768;2023-09-19T14:15:36;2.80;;;0.70;;
11986;SDS011;6053;51.382;6.768;2023-09-19T14:18:10;1.60;;;0.73;;
11986;SDS011;6053;51.382;6.768;2023-09-19T14:20:41;0.90;;;0.60;;
11986;SDS011;6053;51.382;6.768;2023-09-19T14:23:13;0.73;;;0.40;;
11986;SDS011;6053;51.382;6.768;2023-09-19T14:25:41;0.70;;;0.60;;
11986;SDS011;6053;51.382;6.768;2023-09-19T14:28:16;1.05;;;0.52;;
11986;SDS011;6053;51.382;6.768;2023-09-19T14:30:52;1.17;;;0.40;;
11986;SDS011;6053;51.382;6.768;2023-09-19T14:33:20;1.47;;;0.50;;
11986;SDS011;6053;51.382;6.768;2023-09-19T14:35:55;0.57;;;0.40;;
11986;SDS011;6053;51.382;6.768;2023-09-19T14:38:27;1.20;;;0.50;;
11986;SDS011;6053;51.382;6.768;2023-09-19T14:40:59;2.42;;;0.70;;
11986;SDS011;6053;51.382;6.768;2023-09-19T14:43:28;1.97;;;0.60;;
11986;SDS011;6053;51.382;6.768;2023-09-19T14:46:03;0.57;;;0.57;;
11986;SDS011;6053;51.382;6.768;2023-09-19T14:48:37;2.10;;;0.63;;
11986;SDS011;6053;51.382;6.768;2023-09-19T14:51:06;1.00;;;0.50;;
11986;SDS011;6053;51.382;6.768;2023-09-19T14:53:36;1.65;;;0.57;;
11986;SDS011;6053;51.382;6.768;2023-09-19T14:56:08;1.80;;;0.68;;
11986;SDS011;6053;51.382;6.768;2023-09-19T14:58:37;1.42;;;0.60;;
11986;SDS011;6053;51.382;6.768;2023-09-19T15:01:08;1.48;;;0.40;;
11986;SDS011;6053;51.382;6.768;2023-09-19T15:03:44;0.47;;;0.40;;
11986;SDS011;6053;51.382;6.768;2023-09-19T15:06:20;0.77;;;0.50;;
11986;SDS011;6053;51.382;6.768;2023-09-19T15:08:49;0.65;;;0.40;;
11986;SDS011;6053;51.382;6.768;2023-09-19T15:11:20;2.17;;;0.47;;
11986;SDS011;6053;51.382;6.768;2023-09-19T15:14:07;0.90;;;0.40;;
11986;SDS011;6053;51.382;6.768;2023-09-19T15:16:37;1.35;;;0.63;;
11986;SDS011;6053;51.382;6.768;2023-09-19T15:19:13;1.57;;;0.70;;
11986;SDS011;6053;51.382;6.768;2023-09-19T15:21:41;1.50;;;0.60;;
11986;SDS011;6053;51.382;6.768;2023-09-19T15:24:10;0.65;;;0.47;;
11986;SDS011;6053;51.382;6.768;2023-09-19T15:26:41;0.98;;;0.40;;
11986;SDS011;6053;51.382;6.768;2023-09-19T15:29:11;0.80;;;0.50;;
11986;SDS011;6053;51.382;6.768;2023-09-19T15:31:41;0.80;;;0.47;;
11986;SDS011;6053;51.382;6.768;2023-09-19T15:34:12;0.47;;;0.40;;
11986;SDS011;6053;51.382;6.768;2023-09-19T15:36:43;0.90;;;0.40;;
11986;SDS011;6053;51.382;6.768;2023-09-19T15:39:18;1.35;;;0.60;;
11986;SDS011;6053;51.382;6.768;2023-09-19T15:41:48;1.13;;;0.50;;
11986;SDS011;6053;51.382;6.768;2023-09-19T15:44:20;1.83;;;0.50;;
11986;SDS011;6053;51.382;6.768;2023-09-19T15:46:54;1.47;;;0.50;;
11986;SDS011;6053;51.382;6.768;2023-09-19T15:49:26;1.67;;;0.40;;
11986;SDS011;6053;51.382;6.768;2023-09-19T15:52:04;2.67;;;0.40;;
11986;SDS011;6053;51.382;6.768;2023-09-19T15:54:36;0.53;;;0.20;;
11986;SDS011;6053;51.382;6.768;2023-09-19T15:57:10;2.13;;;0.73;;
11986;SDS011;6053;51.382;6.768;2023-09-19T15:59:39;0.90;;;0.40;;
11986;SDS011;6053;51.382;6.768;2023-09-19T16:02:09;1.83;;;0.50;;
11986;SDS011;6053;51.382;6.768;2023-09-19T16:04:38;0.75;;;0.50;;
11986;SDS011;6053;51.382;6.768;2023-09-19T16:07:11;1.40;;;0.50;;
11986;SDS011;6053;51.382;6.768;2023-09-19T16:09:45;0.77;;;0.70;;